createdAt,value
2019-06-27T03:27:34.303Z,100126.67
2019-06-27T03:31:38.660Z,100124.98
2019-06-27T03:35:43.381Z,100129.60
2019-06-27T03:39:47.880Z,100123.31
2019-06-27T03:43:52.226Z,100124.12
2019-06-27T03:47:56.717Z,100120.89
2019-06-27T03:52:01.314Z,100117.64
2019-06-27T03:56:05.865Z,100128.84
2019-06-27T04:00:10.582Z,100126.45
2019-06-27T04:04:14.916Z,100128.13
2019-06-27T04:08:19.240Z,100124.39
2019-06-27T04:12:24.138Z,100128.84
2019-06-27T04:16:28.581Z,100128.36
2019-06-27T04:20:33.113Z,100126.59
2019-06-27T04:24:37.442Z,100128.80
2019-06-27T04:28:41.828Z,100126.59
2019-06-27T04:32:46.206Z,100124.52
2019-06-27T04:36:50.647Z,100116.58
2019-06-27T04:40:55.144Z,100118.48
2019-06-27T04:44:59.511Z,100118.77
2019-06-27T04:49:03.912Z,100113.67
2019-06-27T04:53:08.323Z,100113.61
2019-06-27T04:57:13.063Z,100114.84
2019-06-27T05:01:17.530Z,100124.22
2019-06-27T05:05:21.981Z,100126.84
2019-06-27T05:09:26.993Z,100123.52
2019-06-27T05:13:31.363Z,100120.70
2019-06-27T05:17:35.950Z,100131.31
2019-06-27T05:21:40.281Z,100127.30
2019-06-27T05:25:44.640Z,100130.80
2019-06-27T05:29:49.093Z,100132.95
2019-06-27T05:33:53.404Z,100129.31
2019-06-27T05:37:58.434Z,100125.17
2019-06-27T05:42:02.743Z,100133.22
2019-06-27T05:46:07.093Z,100130.14
2019-06-27T05:50:11.520Z,100129.66
2019-06-27T05:54:16.575Z,100129.13
2019-06-27T05:58:21.006Z,100139.01
2019-06-27T06:14:17.274Z,100130.98
2019-06-27T06:18:21.605Z,100133.49
2019-06-27T06:22:25.972Z,100140.46
2019-06-27T06:26:30.317Z,100138.40
2019-06-27T06:30:44.510Z,100142.33
2019-06-27T06:34:40.669Z,100144.14
2019-06-27T06:38:44.976Z,100144.20
2019-06-27T06:42:49.338Z,100146.15
2019-06-27T06:46:53.637Z,100156.34
2019-06-27T06:50:58.222Z,100140.98
2019-06-27T06:55:02.632Z,100142.70
2019-06-27T06:59:07.531Z,100146.67
2019-06-27T07:03:11.878Z,100148.87
2019-06-27T07:07:16.202Z,100148.19
2019-06-27T07:11:20.498Z,100148.39
2019-06-27T07:15:24.835Z,100150.78
2019-06-27T07:19:29.455Z,100144.84
2019-06-27T07:23:34.318Z,100153.16
2019-06-27T07:27:39.200Z,100159.84
2019-06-27T07:31:43.583Z,100153.81
2019-06-27T07:35:47.913Z,100159.77
2019-06-27T07:39:52.458Z,100163.49
2019-06-27T07:43:56.925Z,100167.42
2019-06-27T07:48:01.529Z,100176.60
2019-06-27T07:52:06.406Z,100160.35
2019-06-27T07:56:12.170Z,100160.49
2019-06-27T08:00:18.129Z,100155.22
2019-06-27T08:04:23.063Z,100150.09
2019-06-27T08:08:27.589Z,100146.75
2019-06-27T08:12:31.892Z,100155.43
2019-06-27T08:16:36.229Z,100145.79
2019-06-27T08:20:40.562Z,100150.61
2019-06-27T08:24:45.372Z,100145.29
2019-06-27T08:28:49.674Z,100138.63
2019-06-27T08:32:54.102Z,100136.80
2019-06-27T08:36:58.492Z,100124.09
2019-06-27T08:41:02.776Z,100128.77
2019-06-27T08:45:08.014Z,100144.00
2019-06-27T08:49:12.433Z,100137.69
2019-06-27T08:53:16.993Z,100136.34
2019-06-27T08:57:21.441Z,100124.42
2019-06-27T09:01:25.856Z,100131.37
2019-06-27T09:05:30.330Z,100127.52
2019-06-27T09:09:34.694Z,100125.27
2019-06-27T09:13:39.023Z,100130.58
2019-06-27T09:17:43.621Z,100131.81
2019-06-27T09:21:47.947Z,100127.19
2019-06-27T09:25:52.302Z,100129.00
2019-06-27T09:29:56.626Z,100124.31
2019-06-27T09:34:04.048Z,100125.80
2019-06-27T09:38:08.378Z,100119.33
2019-06-27T09:42:12.711Z,100120.75
2019-06-27T09:46:17.046Z,100120.20
2019-06-27T09:50:22.432Z,100117.91
2019-06-27T09:54:26.755Z,100116.70
2019-06-27T09:58:31.110Z,100126.59
2019-06-27T10:02:41.588Z,100123.13
2019-06-27T10:06:41.762Z,100123.00
2019-06-27T10:10:46.094Z,100120.28
2019-06-27T10:14:50.575Z,100112.86
2019-06-27T10:18:56.350Z,100101.01
2019-06-27T10:23:00.809Z,100097.34
2019-06-27T10:27:05.473Z,100089.55
2019-06-27T10:31:09.780Z,100084.67
2019-06-27T10:35:14.308Z,100090.78
2019-06-27T10:39:18.893Z,100077.13
2019-06-27T10:43:23.208Z,100077.45
2019-06-27T10:47:28.267Z,100078.45
2019-06-27T10:51:32.562Z,100067.85
2019-06-27T10:55:36.946Z,100065.77
2019-06-27T10:59:41.295Z,100053.30
2019-06-27T11:03:47.115Z,100051.42
2019-06-27T11:07:51.413Z,100049.81
2019-06-27T11:11:56.023Z,100041.38
2019-06-27T11:16:00.400Z,100038.44
2019-06-27T11:20:06.119Z,100038.03
2019-06-27T11:24:10.425Z,100031.84
2019-06-27T11:28:14.917Z,100019.47
2019-06-27T11:32:19.239Z,100028.69
2019-06-27T11:36:23.567Z,100012.71
2019-06-27T11:40:28.070Z,100022.80
2019-06-27T11:44:32.643Z,100007.81
2019-06-27T11:48:37.129Z,100013.34
2019-06-27T11:52:41.432Z,100013.27
2019-06-27T11:56:45.789Z,100003.44
2019-06-27T12:00:50.084Z,100004.38
2019-06-27T12:04:54.423Z,100000.45
2019-06-27T12:08:58.854Z,99980.36
2019-06-27T12:13:03.674Z,99982.28
2019-06-27T12:17:08.010Z,99977.41
2019-06-27T12:21:12.316Z,99977.92
2019-06-27T12:25:17.327Z,99968.72
2019-06-27T12:29:21.647Z,99963.25
2019-06-27T12:58:48.974Z,99923.68
2019-06-27T13:02:53.265Z,99937.56
2019-06-27T13:06:57.765Z,99915.53
2019-06-27T13:11:02.072Z,99913.33
2019-06-27T13:15:07.825Z,99888.84
2019-06-27T13:19:12.258Z,99865.97
2019-06-27T13:23:16.553Z,99865.97
2019-06-27T13:27:20.846Z,99868.97
2019-06-27T13:31:25.636Z,99865.39
2019-06-27T13:35:30.004Z,99863.68
2019-06-27T13:39:34.685Z,99863.75
2019-06-27T13:43:39.159Z,99876.44
2019-06-27T13:47:43.767Z,99885.67
2019-06-27T13:51:48.077Z,99876.50
2019-06-27T13:55:52.609Z,99861.31
2019-06-27T13:59:57.166Z,99843.77
2019-06-27T14:04:01.485Z,99849.16
2019-06-27T14:08:05.870Z,99852.38
2019-06-27T14:12:10.518Z,99863.30
2019-06-27T14:16:15.337Z,99859.39
2019-06-27T14:20:19.832Z,99863.86
2019-06-27T14:24:24.118Z,99856.47
2019-06-27T14:28:35.620Z,99867.38
2019-06-27T14:32:42.284Z,99856.74
2019-06-27T14:36:48.140Z,99856.28
2019-06-27T14:40:53.644Z,99863.02
2019-06-27T14:44:59.204Z,99861.58
2019-06-27T14:49:06.395Z,99854.20
2019-06-27T14:53:11.026Z,99863.34
2019-06-27T14:57:15.546Z,99863.61
2019-06-27T15:01:20.102Z,99851.13
2019-06-27T15:05:32.323Z,99851.47
2019-06-27T15:09:30.526Z,99851.13
2019-06-27T15:13:35.165Z,99843.29
2019-06-27T15:17:39.455Z,99846.20
2019-06-27T15:21:43.772Z,99846.63
2019-06-27T15:25:48.080Z,99838.59
2019-06-27T15:29:52.442Z,99839.75
2019-06-27T15:33:56.804Z,99823.66
2019-06-27T15:38:01.096Z,99831.38
2019-06-27T15:42:05.649Z,99821.59
2019-06-27T15:46:10.061Z,99826.09
2019-06-27T15:50:14.667Z,99834.31
2019-06-27T15:54:19.001Z,99836.41
2019-06-27T15:58:23.335Z,99841.89
2019-06-27T16:02:27.638Z,99860.36
2019-06-27T16:06:31.953Z,99863.13
2019-06-27T16:10:36.486Z,99872.43
2019-06-27T16:14:41.002Z,99884.08
2019-06-27T16:18:45.518Z,99887.42
2019-06-27T16:22:49.820Z,99891.78
2019-06-27T16:26:54.306Z,99889.83
2019-06-27T16:30:58.638Z,99900.48
2019-06-27T16:35:03.247Z,99897.15
2019-06-27T16:39:07.759Z,99900.64
2019-06-27T16:43:12.339Z,99912.77
2019-06-27T16:47:16.760Z,99906.92
2019-06-27T16:51:21.086Z,99905.94
2019-06-27T16:55:25.623Z,99907.42
2019-06-27T16:59:30.038Z,99901.49
2019-06-27T17:03:34.393Z,99907.05
2019-06-27T17:07:38.958Z,99898.64
2019-06-27T17:11:43.237Z,99895.03
2019-06-27T17:15:48.741Z,99904.94
2019-06-27T17:19:53.030Z,99901.41
2019-06-27T17:23:57.581Z,99897.22
2019-06-27T17:28:01.956Z,99910.30
2019-06-27T17:32:06.654Z,99900.63
2019-06-27T17:36:10.964Z,99897.52
2019-06-27T17:40:15.481Z,99901.70
2019-06-27T17:44:20.274Z,99906.39
2019-06-27T17:48:24.847Z,99907.96
2019-06-27T17:52:31.420Z,99906.52
2019-06-27T17:56:35.425Z,99910.58
2019-06-27T18:00:39.767Z,99915.14
2019-06-27T18:04:44.095Z,99915.55
2019-06-27T18:08:48.477Z,99916.47
2019-06-27T18:12:52.925Z,99917.49
2019-06-27T18:16:57.316Z,99925.62
2019-06-27T18:21:02.973Z,99930.98
2019-06-27T18:25:07.463Z,99930.44
2019-06-27T18:29:11.913Z,99938.64
2019-06-27T18:33:16.289Z,99939.07
2019-06-27T18:37:29.715Z,99944.52
2019-06-27T18:41:26.829Z,99953.64
2019-06-27T18:45:31.160Z,99951.19
2019-06-27T18:49:35.511Z,99956.22
2019-06-27T18:53:40.038Z,99963.74
2019-06-27T18:57:44.395Z,99961.18
2019-06-27T19:01:48.827Z,99972.52
2019-06-27T19:05:53.385Z,99973.31
2019-06-27T19:09:57.734Z,99984.35
2019-06-27T19:14:02.146Z,99992.24
2019-06-27T19:18:09.348Z,99995.38
2019-06-27T19:22:33.499Z,100007.10
2019-06-27T19:26:37.858Z,100016.78
2019-06-27T19:30:42.490Z,100027.69
2019-06-27T19:34:47.111Z,100030.59
2019-06-27T19:38:51.844Z,100041.33
2019-06-27T19:42:56.345Z,100050.20
2019-06-27T19:47:01.759Z,100057.92
2019-06-27T19:51:06.102Z,100069.63
2019-06-27T19:55:10.845Z,100076.84
2019-06-27T19:59:15.331Z,100085.54
2019-06-27T20:03:19.751Z,100098.66
2019-06-27T20:07:24.577Z,100103.95
2019-06-27T20:11:29.241Z,100105.38
2019-06-27T20:15:33.725Z,100108.50
2019-06-27T20:19:38.063Z,100111.59
2019-06-27T20:23:42.392Z,100114.27
2019-06-27T20:27:46.826Z,100119.16
2019-06-27T20:31:51.352Z,100131.20
2019-06-27T20:35:55.773Z,100127.49
2019-06-27T20:40:00.210Z,100127.66
2019-06-27T20:44:04.498Z,100124.36
2019-06-27T20:48:08.859Z,100135.73
2019-06-27T20:52:13.350Z,100138.23
2019-06-27T20:56:18.044Z,100142.82
2019-06-27T21:00:22.698Z,100148.69
2019-06-27T21:04:27.494Z,100154.94
2019-06-27T21:08:31.975Z,100160.24
2019-06-27T21:12:36.733Z,100165.18
2019-06-27T21:16:41.438Z,100158.30
2019-06-27T21:20:45.921Z,100164.12
2019-06-27T21:24:50.346Z,100168.00
2019-06-27T21:28:55.138Z,100167.13
2019-06-27T21:32:59.466Z,100180.54
2019-06-27T21:37:04.018Z,100180.85
2019-06-27T21:41:08.559Z,100183.89
2019-06-27T21:45:13.336Z,100184.83
2019-06-27T21:49:17.794Z,100192.92
2019-06-27T21:53:22.246Z,100189.66
2019-06-27T21:57:28.080Z,100194.97
2019-06-27T22:01:32.931Z,100193.54
2019-06-27T22:05:37.686Z,100194.24
2019-06-27T22:10:30.081Z,100197.20
2019-06-27T22:14:29.995Z,100201.08
2019-06-27T22:18:34.779Z,100196.87
2019-06-27T22:22:39.346Z,100203.89
2019-06-27T22:26:43.898Z,100212.30
2019-06-27T22:30:48.459Z,100215.68
2019-06-27T22:34:52.743Z,100219.55
2019-06-27T22:39:15.011Z,100222.77
2019-06-27T22:43:37.490Z,100224.28
2019-06-27T22:47:59.499Z,100228.53
2019-06-27T22:52:29.835Z,100225.04
2019-06-27T22:56:34.657Z,100225.87
2019-06-27T23:00:39.167Z,100215.55
2019-06-27T23:04:43.738Z,100222.83
2019-06-27T23:08:48.306Z,100216.58
2019-06-27T23:12:52.780Z,100221.17
2019-06-27T23:16:57.318Z,100223.27
2019-06-27T23:21:01.619Z,100224.84
2019-06-27T23:25:06.484Z,100223.16
2019-06-27T23:29:10.898Z,100219.00
2019-06-27T23:33:15.666Z,100215.65
2019-06-27T23:37:19.991Z,100220.05
2019-06-27T23:41:24.564Z,100222.86
2019-06-27T23:45:29.045Z,100207.95
2019-06-27T23:49:33.619Z,100209.97
2019-06-27T23:53:38.050Z,100215.61
2019-06-27T23:57:42.679Z,100215.42
